createdAt,value
2022-08-05T00:00:20.050Z,60.07
2022-08-05T00:03:10.428Z,61.66
2022-08-05T00:06:05.196Z,60.27
2022-08-05T00:08:34.526Z,60.84
2022-08-05T00:11:20.569Z,60.77
2022-08-05T00:13:57.478Z,60.72
2022-08-05T00:16:35.525Z,61.69
2022-08-05T00:19:06.255Z,61.23
2022-08-05T00:21:35.638Z,61.26
2022-08-05T00:24:10.756Z,61.72
2022-08-05T00:26:50.828Z,61.39
2022-08-05T00:29:25.708Z,61.78
2022-08-05T00:32:13.039Z,61.10
2022-08-05T00:35:03.774Z,61.75
2022-08-05T00:37:51.098Z,62.52
2022-08-05T00:40:26.838Z,63.45
2022-08-05T00:42:57.924Z,62.71
2022-08-05T00:45:38.104Z,63.09
2022-08-05T00:48:07.862Z,62.65
2022-08-05T00:50:37.363Z,62.29
2022-08-05T00:54:00.765Z,62.18
2022-08-05T00:56:01.861Z,62.00
2022-08-05T00:58:30.860Z,62.22
2022-08-05T01:01:11.453Z,63.10
2022-08-05T01:03:43.329Z,62.92
2022-08-05T01:06:32.954Z,63.45
2022-08-05T01:09:00.987Z,62.68
2022-08-05T01:11:37.606Z,62.30
2022-08-05T01:14:15.826Z,62.67
2022-08-05T01:16:58.198Z,63.75
2022-08-05T01:19:56.303Z,62.65
2022-08-05T01:22:42.617Z,62.93
2022-08-05T01:28:50.495Z,62.25
2022-08-05T01:31:26.153Z,62.05
2022-08-05T01:34:01.927Z,62.38
2022-08-05T01:36:35.284Z,63.28
2022-08-05T01:39:14.467Z,62.95
2022-08-05T01:42:14.292Z,63.44
2022-08-05T01:44:54.374Z,62.39
2022-08-05T01:47:38.752Z,63.84
2022-08-05T01:50:14.277Z,64.65
2022-08-05T01:52:50.320Z,63.48
2022-08-05T01:55:20.926Z,62.42
2022-08-05T01:58:10.552Z,62.23
2022-08-05T02:00:45.118Z,62.27
2022-08-05T02:03:29.216Z,62.27
2022-08-05T02:06:03.631Z,62.47
2022-08-05T02:08:58.497Z,63.08
2022-08-05T02:11:32.820Z,62.57
2022-08-05T02:14:12.524Z,62.12
2022-08-05T02:16:52.252Z,61.99
2022-08-05T02:19:34.469Z,61.96
2022-08-05T02:22:10.280Z,61.53
2022-08-05T02:25:02.134Z,60.98
2022-08-05T02:27:59.159Z,60.88
2022-08-05T02:30:23.551Z,61.26
2022-08-05T02:33:06.686Z,61.48
2022-08-05T02:35:37.669Z,63.53
2022-08-05T02:38:11.696Z,64.98
2022-08-05T02:40:48.244Z,64.72
2022-08-05T02:43:21.063Z,64.69
2022-08-05T02:45:53.996Z,64.76
2022-08-05T02:48:29.321Z,64.20
2022-08-05T02:51:00.956Z,63.99
2022-08-05T02:53:39.065Z,63.59
2022-08-05T02:56:09.460Z,63.54
2022-08-05T02:58:52.646Z,63.82
2022-08-05T03:01:24.906Z,63.85
2022-08-05T03:04:02.720Z,64.46
2022-08-05T03:06:55.889Z,64.14
2022-08-05T03:09:38.152Z,64.20
2022-08-05T03:12:09.653Z,63.97
2022-08-05T03:14:45.777Z,63.63
2022-08-05T03:17:22.027Z,63.22
2022-08-05T03:19:53.223Z,62.86
2022-08-05T03:22:44.158Z,62.72
2022-08-05T03:25:33.974Z,63.20
2022-08-05T03:28:09.703Z,62.90
2022-08-05T03:30:41.107Z,62.80
2022-08-05T03:33:10.915Z,62.85
2022-08-05T03:35:43.053Z,62.48
2022-08-05T03:38:14.380Z,62.54
2022-08-05T03:40:45.046Z,62.81
2022-08-05T03:44:09.467Z,62.85
2022-08-05T03:46:08.063Z,62.88
2022-08-05T03:48:36.744Z,62.94
2022-08-05T03:52:37.211Z,63.65
2022-08-05T03:55:34.099Z,63.80
2022-08-05T03:57:00.012Z,63.48
2022-08-05T03:59:46.865Z,63.41
2022-08-05T04:02:38.229Z,63.43
2022-08-05T04:05:16.115Z,64.38
2022-08-05T04:07:57.314Z,64.63
2022-08-05T04:10:32.191Z,64.21
2022-08-05T04:13:06.538Z,64.23
2022-08-05T04:15:38.118Z,64.76
2022-08-05T04:18:25.381Z,64.68
2022-08-05T04:20:58.181Z,64.36
2022-08-05T04:24:05.643Z,64.69
2022-08-05T04:26:18.817Z,64.76
2022-08-05T04:28:51.040Z,65.05
2022-08-05T04:31:20.049Z,65.07
2022-08-05T04:33:54.796Z,65.60
2022-08-05T04:36:49.618Z,65.51
2022-08-05T04:39:23.410Z,66.08
2022-08-05T04:41:54.713Z,66.20
2022-08-05T04:44:30.313Z,66.05
2022-08-05T04:46:59.163Z,66.13
2022-08-05T04:49:38.619Z,65.61
2022-08-05T04:52:17.607Z,65.86
2022-08-05T04:54:50.491Z,65.68
2022-08-05T04:57:18.345Z,65.68
2022-08-05T05:00:01.627Z,65.94
2022-08-05T05:02:36.894Z,65.72
2022-08-05T05:05:16.675Z,65.98
2022-08-05T05:07:56.413Z,65.46
2022-08-05T05:10:31.034Z,64.81
2022-08-05T05:13:04.105Z,64.61
2022-08-05T05:15:57.663Z,64.34
2022-08-05T05:18:31.158Z,64.81
2022-08-05T05:21:14.181Z,65.10
2022-08-05T05:24:02.910Z,64.31
2022-08-05T05:26:32.926Z,63.82
2022-08-05T05:29:02.742Z,64.06
2022-08-05T05:31:50.618Z,64.34
2022-08-05T05:34:26.918Z,64.50
2022-08-05T05:36:58.247Z,64.42
2022-08-05T05:39:34.663Z,64.37
2022-08-05T05:42:06.103Z,64.96
2022-08-05T05:44:36.789Z,64.86
2022-08-05T05:47:21.236Z,64.52
2022-08-05T05:49:56.492Z,64.43
2022-08-05T05:52:28.374Z,64.39
2022-08-05T05:55:07.430Z,64.71
2022-08-05T05:57:52.909Z,64.78
2022-08-05T06:00:31.376Z,64.78
2022-08-05T06:03:40.064Z,64.55
2022-08-05T06:05:58.459Z,64.12
2022-08-05T06:08:32.432Z,64.43
2022-08-05T06:11:00.964Z,64.78
2022-08-05T06:13:40.915Z,64.41
2022-08-05T06:16:29.066Z,64.44
2022-08-05T06:19:00.893Z,64.43
2022-08-05T06:21:36.844Z,64.58
2022-08-05T06:24:12.271Z,64.44
2022-08-05T06:26:56.175Z,64.16
2022-08-05T06:29:51.978Z,65.20
2022-08-05T06:32:25.307Z,66.78
2022-08-05T06:34:56.311Z,67.45
2022-08-05T06:37:56.480Z,67.72
2022-08-05T06:40:35.731Z,67.59
2022-08-05T06:43:57.867Z,67.94
2022-08-05T06:46:29.919Z,68.69
2022-08-05T06:49:01.878Z,69.56
2022-08-05T06:51:36.334Z,70.36
2022-08-05T06:54:08.837Z,71.48
2022-08-05T06:56:39.958Z,70.32
2022-08-05T06:59:09.912Z,70.32
2022-08-05T07:01:43.959Z,70.81
2022-08-05T07:04:14.979Z,70.82
2022-08-05T07:06:53.156Z,71.67
2022-08-05T07:09:24.876Z,71.85
2022-08-05T07:11:53.125Z,72.37
2022-08-05T07:18:01.237Z,70.18
2022-08-05T07:20:37.070Z,69.65
2022-08-05T07:23:07.054Z,69.08
2022-08-05T07:25:54.990Z,68.27
2022-08-05T07:28:22.935Z,67.59
2022-08-05T07:30:59.887Z,67.99
2022-08-05T07:33:36.687Z,68.22
2022-08-05T07:38:49.161Z,68.33
2022-08-05T07:42:13.475Z,67.73
2022-08-05T07:44:18.815Z,66.93
2022-08-05T07:46:49.492Z,67.02
2022-08-05T07:49:20.473Z,67.65
2022-08-05T07:51:54.733Z,67.77
2022-08-05T07:54:30.980Z,67.52
2022-08-05T07:57:13.546Z,67.85
2022-08-05T07:59:46.984Z,68.52
2022-08-05T08:02:17.891Z,68.94
2022-08-05T08:04:57.379Z,69.33
2022-08-05T08:07:28.314Z,68.94
2022-08-05T08:09:56.785Z,67.85
2022-08-05T08:12:48.423Z,67.38
2022-08-05T08:15:16.320Z,66.49
2022-08-05T08:17:52.441Z,66.35
2022-08-05T08:20:59.792Z,65.97
2022-08-05T08:24:03.315Z,65.22
2022-08-05T08:26:07.897Z,65.35
2022-08-05T08:28:55.218Z,65.29
2022-08-05T08:31:23.970Z,65.81
2022-08-05T08:33:54.999Z,67.08
2022-08-05T08:36:38.939Z,67.03
2022-08-05T08:39:14.897Z,66.34
2022-08-05T08:41:52.144Z,66.33
2022-08-05T08:45:19.016Z,65.91
2022-08-05T08:48:05.651Z,65.28
2022-08-05T08:50:52.094Z,65.14
2022-08-05T08:53:08.043Z,64.34
2022-08-05T08:56:03.865Z,63.28
2022-08-05T08:58:43.268Z,62.89
2022-08-05T09:01:15.828Z,61.89
2022-08-05T09:03:47.490Z,62.49
2022-08-05T09:06:21.118Z,62.83
2022-08-05T09:08:53.375Z,63.26
2022-08-05T09:11:52.631Z,63.85
2022-08-05T09:14:57.763Z,64.02
2022-08-05T09:17:08.299Z,63.93
2022-08-05T09:19:55.425Z,64.07
2022-08-05T09:22:31.749Z,64.09
2022-08-05T09:25:13.659Z,65.05
2022-08-05T09:28:03.900Z,65.61
2022-08-05T09:30:43.877Z,65.42
2022-08-05T09:33:25.362Z,65.69
2022-08-05T09:36:11.828Z,65.82
2022-08-05T09:38:57.846Z,65.56
2022-08-05T09:41:28.047Z,65.63
2022-08-05T09:44:01.495Z,66.07
2022-08-05T09:46:35.025Z,65.74
2022-08-05T09:49:19.104Z,65.55
2022-08-05T09:51:50.423Z,65.28
2022-08-05T09:54:31.228Z,65.25
2022-08-05T09:57:01.278Z,64.94
2022-08-05T09:59:34.811Z,64.22
2022-08-05T10:02:05.270Z,63.50
2022-08-05T10:04:40.904Z,62.76
2022-08-05T10:08:11.159Z,62.55
2022-08-05T10:10:15.723Z,62.51
2022-08-05T10:12:50.445Z,62.46
2022-08-05T10:15:34.470Z,62.45
2022-08-05T10:18:16.949Z,62.39
2022-08-05T10:20:50.192Z,62.83
2022-08-05T10:23:56.411Z,63.04
2022-08-05T10:26:15.890Z,63.04
2022-08-05T10:28:48.825Z,62.89
2022-08-05T10:32:54.586Z,62.77
2022-08-05T10:34:08.467Z,62.56
2022-08-05T10:36:37.341Z,62.96
2022-08-05T10:39:10.449Z,63.41
2022-08-05T10:41:50.326Z,64.00
2022-08-05T10:44:21.719Z,67.41
2022-08-05T10:46:54.046Z,69.82
2022-08-05T10:49:33.195Z,70.87
2022-08-05T10:52:10.465Z,70.54
2022-08-05T10:55:06.779Z,70.08
2022-08-05T10:57:35.558Z,68.87
2022-08-05T11:00:20.119Z,68.58
2022-08-05T11:03:25.532Z,67.98
2022-08-05T11:06:15.150Z,67.88
2022-08-05T11:09:24.176Z,67.80
2022-08-05T11:12:04.903Z,67.54
2022-08-05T11:15:01.416Z,67.08
2022-08-05T11:17:58.122Z,67.74
2022-08-05T11:24:03.250Z,66.93
2022-08-05T11:26:35.944Z,66.27
2022-08-05T11:29:13.208Z,65.18
2022-08-05T11:31:56.447Z,64.59
2022-08-05T11:34:52.214Z,64.73
2022-08-05T11:38:29.156Z,66.04
2022-08-05T11:41:13.929Z,67.43
2022-08-05T11:44:04.725Z,65.55
2022-08-05T11:46:58.744Z,65.67
2022-08-05T11:49:29.269Z,65.49
2022-08-05T11:52:11.069Z,65.88
2022-08-05T11:54:41.431Z,66.06
2022-08-05T11:57:24.403Z,66.27
2022-08-05T11:59:53.784Z,67.40
2022-08-05T12:02:32.523Z,67.91
2022-08-05T12:05:08.004Z,67.67
2022-08-05T12:08:03.824Z,66.84
2022-08-05T12:10:45.597Z,66.63
2022-08-05T12:13:47.946Z,67.33
2022-08-05T12:16:27.117Z,66.94
2022-08-05T12:18:56.921Z,67.27
2022-08-05T12:21:30.007Z,67.47
2022-08-05T12:24:08.314Z,67.59
2022-08-05T12:26:38.699Z,67.34
2022-08-05T12:29:09.454Z,66.87
2022-08-05T12:31:46.032Z,66.29
2022-08-05T12:34:21.420Z,65.99
2022-08-05T12:36:56.747Z,65.13
2022-08-05T12:39:37.130Z,65.55
2022-08-05T12:42:14.498Z,65.54
2022-08-05T12:44:44.396Z,65.78
2022-08-05T12:47:13.733Z,66.45
2022-08-05T12:50:03.564Z,66.79
2022-08-05T12:52:41.758Z,66.70
2022-08-05T12:55:23.754Z,66.34
2022-08-05T12:58:49.251Z,65.86
2022-08-05T13:02:02.360Z,65.83
2022-08-05T13:03:39.220Z,65.63
2022-08-05T13:06:17.607Z,64.96
2022-08-05T13:08:51.545Z,64.91
2022-08-05T13:11:25.335Z,64.24
2022-08-05T13:14:19.447Z,63.47
2022-08-05T13:16:49.881Z,62.86
2022-08-05T13:19:18.354Z,62.75
2022-08-05T13:21:52.314Z,63.49
2022-08-05T13:24:36.617Z,63.99
2022-08-05T13:27:22.952Z,64.03
2022-08-05T13:30:31.433Z,63.60
2022-08-05T13:32:50.809Z,63.46
2022-08-05T13:35:26.267Z,63.58
2022-08-05T13:38:20.476Z,63.87
2022-08-05T13:41:02.725Z,64.42
2022-08-05T13:43:44.737Z,64.43
2022-08-05T13:46:44.085Z,64.17
2022-08-05T13:49:19.339Z,63.64
2022-08-05T13:51:51.270Z,63.85
2022-08-05T13:54:26.474Z,63.88
2022-08-05T13:57:06.332Z,63.60
2022-08-05T13:59:38.422Z,63.61
2022-08-05T14:02:35.956Z,64.14
2022-08-05T14:05:19.474Z,64.33
2022-08-05T14:08:20.021Z,64.32
2022-08-05T14:11:03.282Z,63.85
2022-08-05T14:13:54.915Z,63.50
2022-08-05T14:16:29.720Z,62.79
2022-08-05T14:19:04.293Z,62.11
2022-08-05T14:22:08.962Z,62.19
2022-08-05T14:24:26.223Z,62.22
2022-08-05T14:27:17.179Z,62.19
2022-08-05T14:29:51.426Z,61.91
2022-08-05T14:32:28.205Z,62.01
2022-08-05T14:35:03.107Z,62.00
2022-08-05T14:37:47.369Z,61.74
2022-08-05T14:40:20.102Z,61.37
2022-08-05T14:42:56.256Z,61.16
2022-08-05T14:45:26.780Z,60.99
2022-08-05T14:48:05.130Z,60.49
2022-08-05T14:50:43.083Z,60.69
2022-08-05T14:53:12.783Z,60.82
2022-08-05T14:55:43.464Z,61.05
2022-08-05T14:58:13.820Z,60.61
2022-08-05T15:00:59.161Z,60.60
2022-08-05T15:03:33.208Z,60.83
2022-08-05T15:06:15.432Z,60.61
2022-08-05T15:08:59.704Z,60.56
2022-08-05T15:11:52.325Z,60.54
2022-08-05T15:14:34.470Z,60.60
2022-08-05T15:17:45.961Z,61.11
2022-08-05T15:20:18.860Z,61.76
2022-08-05T15:22:54.199Z,60.79
2022-08-05T15:25:52.729Z,61.32
2022-08-05T15:28:27.138Z,60.58
2022-08-05T15:30:59.665Z,60.13
2022-08-05T15:34:18.811Z,60.33
2022-08-05T15:36:50.918Z,60.12
2022-08-05T15:40:58.613Z,60.48
2022-08-05T15:42:54.747Z,60.63
2022-08-05T15:45:06.792Z,60.54
2022-08-05T15:47:39.093Z,61.20
2022-08-05T15:50:15.146Z,61.22
2022-08-05T15:52:53.227Z,61.38
2022-08-05T15:55:25.107Z,61.36
2022-08-05T15:58:16.621Z,61.61
2022-08-05T16:01:11.956Z,61.52
2022-08-05T16:03:50.454Z,61.45
2022-08-05T16:06:23.422Z,61.35
2022-08-05T16:08:55.340Z,61.01
2022-08-05T16:11:42.481Z,60.96
2022-08-05T16:14:20.861Z,60.77
2022-08-05T16:16:50.996Z,60.92
2022-08-05T16:20:04.367Z,61.11
2022-08-05T16:22:18.100Z,61.02
2022-08-05T16:24:59.767Z,60.91
2022-08-05T16:27:32.141Z,60.18
2022-08-05T16:30:25.523Z,60.44
2022-08-05T16:32:58.471Z,60.84
2022-08-05T16:35:30.886Z,61.00
2022-08-05T16:38:18.881Z,61.37
2022-08-05T16:41:00.109Z,61.46
2022-08-05T16:43:31.813Z,61.33
2022-08-05T16:46:03.930Z,61.56
2022-08-05T16:48:39.414Z,61.38
2022-08-05T16:51:10.623Z,61.32
2022-08-05T16:54:05.394Z,61.46
2022-08-05T16:56:34.597Z,61.50
2022-08-05T16:59:08.342Z,61.31
2022-08-05T17:01:52.921Z,61.46
2022-08-05T17:04:31.339Z,61.58
2022-08-05T17:07:03.103Z,61.26
2022-08-05T17:09:58.401Z,61.19
2022-08-05T17:12:51.584Z,60.80
2022-08-05T17:15:20.630Z,60.58
2022-08-05T17:17:55.812Z,60.37
2022-08-05T17:20:39.694Z,60.52
2022-08-05T17:23:09.237Z,60.26
2022-08-05T17:25:57.155Z,58.86
2022-08-05T17:28:26.425Z,57.69
2022-08-05T17:30:56.882Z,57.69
2022-08-05T17:33:28.193Z,56.45
2022-08-05T17:36:33.607Z,56.26
2022-08-05T17:39:05.099Z,51.62
2022-08-05T17:42:20.011Z,56.12
2022-08-05T17:44:50.312Z,55.38
2022-08-05T17:47:22.853Z,55.40
2022-08-05T17:50:03.602Z,55.23
2022-08-05T17:52:54.807Z,55.45
2022-08-05T17:55:38.239Z,55.33
2022-08-05T17:58:32.266Z,55.45
2022-08-05T18:01:02.207Z,55.41
2022-08-05T18:03:59.781Z,55.22
2022-08-05T18:06:30.924Z,55.17
2022-08-05T18:08:59.907Z,55.29
2022-08-05T18:11:33.236Z,54.84
2022-08-05T18:14:07.103Z,55.02
2022-08-05T18:16:51.171Z,54.96
2022-08-05T18:22:11.501Z,49.52
2022-08-05T18:24:45.918Z,55.24
2022-08-05T18:27:18.826Z,55.10
2022-08-05T18:29:52.014Z,55.03
2022-08-05T18:32:28.107Z,54.77
2022-08-05T18:35:00.532Z,55.22
2022-08-05T18:37:34.716Z,55.14
2022-08-05T18:41:50.994Z,55.09
2022-08-05T18:43:00.378Z,55.63
2022-08-05T18:45:41.486Z,55.03
2022-08-05T18:48:31.535Z,54.97
2022-08-05T18:52:02.937Z,55.16
2022-08-05T18:54:06.648Z,55.04
2022-08-05T18:56:51.047Z,54.35
2022-08-05T18:59:44.037Z,55.30
2022-08-05T19:02:27.899Z,55.40
2022-08-05T19:05:03.030Z,55.79
2022-08-05T19:07:49.947Z,55.78
2022-08-05T19:10:27.976Z,55.84
2022-08-05T19:13:00.368Z,56.05
2022-08-05T19:15:58.927Z,56.01
2022-08-05T19:18:20.999Z,56.15
2022-08-05T19:20:52.811Z,56.35
2022-08-05T19:24:06.595Z,56.14
2022-08-05T19:26:12.751Z,56.42
2022-08-05T19:28:42.401Z,56.41
2022-08-05T19:31:13.230Z,56.51
2022-08-05T19:33:48.734Z,56.51
2022-08-05T19:36:26.876Z,56.52
2022-08-05T19:39:00.930Z,56.57
2022-08-05T19:42:06.460Z,56.32
2022-08-05T19:44:21.075Z,56.44
2022-08-05T19:46:50.302Z,56.70
2022-08-05T19:49:27.623Z,56.33
2022-08-05T19:52:08.589Z,56.60
2022-08-05T19:54:47.794Z,56.42
2022-08-05T19:57:18.674Z,56.69
2022-08-05T20:00:07.589Z,56.56
2022-08-05T20:02:40.201Z,56.49
2022-08-05T20:05:16.509Z,56.74
2022-08-05T20:07:58.871Z,56.72
2022-08-05T20:10:27.307Z,56.90
2022-08-05T20:12:57.714Z,56.65
2022-08-05T20:15:51.519Z,56.90
2022-08-05T20:18:33.094Z,57.01
2022-08-05T20:21:05.064Z,57.08
2022-08-05T20:23:42.286Z,57.24
2022-08-05T20:26:21.012Z,57.31
2022-08-05T20:28:51.503Z,57.01
2022-08-05T20:31:28.360Z,57.14
2022-08-05T20:34:05.273Z,57.04
2022-08-05T20:36:33.920Z,57.14
2022-08-05T20:39:03.806Z,57.15
2022-08-05T20:41:43.919Z,57.61
2022-08-05T20:44:30.394Z,57.70
2022-08-05T20:47:00.090Z,57.69
2022-08-05T20:49:37.900Z,57.88
2022-08-05T20:52:10.759Z,57.29
2022-08-05T20:54:42.819Z,57.64
2022-08-05T20:57:14.460Z,57.75
2022-08-05T21:00:19.936Z,57.77
2022-08-05T21:02:39.458Z,57.55
2022-08-05T21:05:11.859Z,57.58
2022-08-05T21:07:50.534Z,57.87
2022-08-05T21:10:23.194Z,57.75
2022-08-05T21:13:02.710Z,58.08
2022-08-05T21:15:39.812Z,58.12
2022-08-05T21:18:14.622Z,58.08
2022-08-05T21:20:42.599Z,58.18
2022-08-05T21:23:17.084Z,58.50
2022-08-05T21:25:46.585Z,58.68
2022-08-05T21:28:18.337Z,58.08
2022-08-05T21:30:46.747Z,58.43
2022-08-05T21:33:22.388Z,58.26
2022-08-05T21:35:58.175Z,58.41
2022-08-05T21:38:40.395Z,58.06
2022-08-05T21:41:12.388Z,58.41
2022-08-05T21:43:50.894Z,58.50
2022-08-05T21:46:32.119Z,58.17
2022-08-05T21:49:02.301Z,58.24
2022-08-05T21:52:21.927Z,58.58
2022-08-05T21:54:30.937Z,58.66
2022-08-05T21:57:30.856Z,58.29
2022-08-05T22:00:06.952Z,58.57
2022-08-05T22:02:42.682Z,58.54
2022-08-05T22:05:14.956Z,58.39
2022-08-05T22:07:58.426Z,58.44
2022-08-05T22:10:30.867Z,58.64
2022-08-05T22:13:58.831Z,58.44
2022-08-05T22:16:00.383Z,58.89
2022-08-05T22:18:36.537Z,58.45
2022-08-05T22:21:18.717Z,58.47
2022-08-05T22:24:09.193Z,58.41
2022-08-05T22:27:16.494Z,58.70
2022-08-05T22:29:46.605Z,58.38
2022-08-05T22:32:22.986Z,58.17
2022-08-05T22:34:54.900Z,58.91
2022-08-05T22:37:23.975Z,58.84
2022-08-05T22:40:16.722Z,58.78
2022-08-05T22:42:58.049Z,58.81
2022-08-05T22:45:28.083Z,58.40
2022-08-05T22:47:59.205Z,58.56
2022-08-05T22:50:28.828Z,58.92
2022-08-05T22:52:57.097Z,58.89
2022-08-05T22:55:57.306Z,58.94
2022-08-05T22:58:28.423Z,59.06
2022-08-05T23:01:05.894Z,59.31
2022-08-05T23:03:58.313Z,59.06
2022-08-05T23:06:22.677Z,59.16
2022-08-05T23:08:54.569Z,59.20
2022-08-05T23:11:22.517Z,59.42
2022-08-05T23:13:54.164Z,59.55
2022-08-05T23:16:43.955Z,59.78
2022-08-05T23:19:12.126Z,59.14
2022-08-05T23:21:54.849Z,59.37
2022-08-05T23:24:22.776Z,59.56
2022-08-05T23:26:50.892Z,59.71
2022-08-05T23:29:21.918Z,60.12
2022-08-05T23:31:51.255Z,59.82
2022-08-05T23:34:24.592Z,59.93
2022-08-05T23:36:52.983Z,59.97
2022-08-05T23:39:44.630Z,60.42
2022-08-05T23:42:14.416Z,60.28
2022-08-05T23:44:45.343Z,60.20
2022-08-05T23:47:25.156Z,60.53
2022-08-05T23:49:56.455Z,60.41
2022-08-05T23:52:30.475Z,60.52
2022-08-05T23:55:01.319Z,60.77
2022-08-05T23:57:29.846Z,60.57
